createdAt,value
2022-08-26T00:01:10.566Z,70.16
2022-08-26T00:04:41.427Z,69.97
2022-08-26T00:08:13.592Z,70.05
2022-08-26T00:11:43.429Z,70.27
2022-08-26T00:14:59.613Z,70.12
2022-08-26T00:18:31.426Z,70.35
2022-08-26T00:22:08.620Z,70.31
2022-08-26T00:25:38.437Z,70.57
2022-08-26T00:29:12.585Z,70.43
2022-08-26T00:32:43.966Z,70.40
2022-08-26T00:36:20.389Z,70.43
2022-08-26T00:39:54.435Z,70.56
2022-08-26T00:43:25.639Z,70.57
2022-08-26T00:46:53.434Z,70.83
2022-08-26T00:50:25.586Z,71.08
2022-08-26T00:54:00.431Z,71.16
2022-08-26T00:57:34.586Z,71.02
2022-08-26T01:04:45.097Z,71.28
2022-08-26T01:07:34.752Z,71.28
2022-08-26T01:10:26.550Z,71.31
2022-08-26T01:13:14.217Z,71.31
2022-08-26T01:16:04.210Z,71.60
2022-08-26T01:18:55.426Z,71.50
2022-08-26T01:21:54.973Z,71.35
2022-08-26T01:24:42.125Z,71.75
2022-08-26T01:27:32.500Z,71.97
2022-08-26T01:30:21.152Z,71.96
2022-08-26T01:33:15.230Z,72.04
2022-08-26T01:36:03.091Z,71.90
2022-08-26T01:38:49.892Z,72.04
2022-08-26T01:41:38.137Z,71.91
2022-08-26T01:44:29.270Z,72.26
2022-08-26T01:47:22.970Z,71.97
2022-08-26T01:50:27.773Z,71.87
2022-08-26T01:53:19.909Z,72.21
2022-08-26T01:56:10.146Z,72.15
2022-08-26T01:59:00.842Z,72.15
2022-08-26T02:01:48.971Z,72.35
2022-08-26T02:05:05.583Z,72.31
2022-08-26T02:07:53.555Z,72.42
2022-08-26T02:10:41.242Z,72.48
2022-08-26T02:13:33.433Z,72.73
2022-08-26T02:16:24.012Z,72.85
2022-08-26T02:19:24.413Z,72.41
2022-08-26T02:22:16.188Z,72.57
2022-08-26T02:25:39.490Z,72.70
2022-08-26T02:28:31.269Z,72.79
2022-08-26T02:31:18.941Z,72.73
2022-08-26T02:34:16.683Z,72.86
2022-08-26T02:37:07.932Z,72.84
2022-08-26T02:39:54.729Z,72.61
2022-08-26T02:42:42.187Z,72.94
2022-08-26T02:45:29.829Z,72.96
2022-08-26T02:48:19.253Z,72.95
2022-08-26T02:51:06.104Z,72.97
2022-08-26T02:53:53.699Z,73.16
2022-08-26T02:56:40.661Z,73.10
2022-08-26T02:59:27.473Z,72.99
2022-08-26T03:02:17.395Z,73.05
2022-08-26T03:05:05.191Z,73.26
2022-08-26T03:07:52.812Z,73.43
2022-08-26T03:10:41.393Z,73.36
2022-08-26T03:13:29.725Z,73.55
2022-08-26T03:16:17.614Z,73.65
2022-08-26T03:19:07.376Z,73.60
2022-08-26T03:21:57.871Z,73.80
2022-08-26T03:24:46.106Z,73.59
2022-08-26T03:27:34.356Z,73.39
2022-08-26T03:30:44.708Z,73.79
2022-08-26T03:33:32.290Z,73.87
2022-08-26T03:36:19.800Z,73.78
2022-08-26T03:39:07.244Z,73.95
2022-08-26T03:41:55.494Z,73.75
2022-08-26T03:44:42.553Z,73.89
2022-08-26T03:47:31.279Z,73.94
2022-08-26T03:50:22.836Z,73.94
2022-08-26T03:53:13.152Z,74.09
2022-08-26T03:56:00.584Z,74.16
2022-08-26T03:58:47.344Z,74.06
2022-08-26T04:01:35.268Z,74.30
2022-08-26T04:04:22.866Z,74.31
2022-08-26T04:07:12.539Z,74.35
2022-08-26T04:09:59.726Z,74.29
2022-08-26T04:12:46.744Z,74.33
2022-08-26T04:15:33.942Z,74.46
2022-08-26T04:18:22.251Z,74.39
2022-08-26T04:21:10.016Z,74.25
2022-08-26T04:24:00.588Z,74.48
2022-08-26T04:26:52.373Z,74.75
2022-08-26T04:29:41.321Z,74.58
2022-08-26T04:32:28.622Z,74.95
2022-08-26T04:35:15.667Z,74.96
2022-08-26T04:38:20.059Z,74.84
2022-08-26T04:41:15.082Z,75.05
2022-08-26T04:44:04.868Z,75.19
2022-08-26T04:46:52.282Z,75.04
2022-08-26T04:49:40.569Z,75.27
2022-08-26T04:52:29.715Z,75.38
2022-08-26T04:55:17.805Z,75.56
2022-08-26T04:58:10.135Z,75.70
2022-08-26T05:00:58.510Z,75.97
2022-08-26T05:03:46.614Z,76.02
2022-08-26T05:06:35.478Z,76.30
2022-08-26T05:09:24.421Z,76.33
2022-08-26T05:12:11.973Z,76.28
2022-08-26T05:15:00.288Z,76.31
2022-08-26T05:17:47.882Z,76.59
2022-08-26T05:20:46.847Z,76.54
2022-08-26T05:23:36.100Z,76.69
2022-08-26T05:26:26.801Z,76.81
2022-08-26T05:29:14.238Z,76.95
2022-08-26T05:32:01.938Z,77.03
2022-08-26T05:34:54.167Z,77.16
2022-08-26T05:37:41.137Z,77.39
2022-08-26T05:40:29.049Z,77.78
2022-08-26T05:43:17.396Z,78.81
2022-08-26T05:46:07.825Z,79.66
2022-08-26T05:48:58.330Z,79.96
2022-08-26T05:51:47.474Z,79.15
2022-08-26T05:54:35.250Z,77.68
2022-08-26T05:57:23.065Z,76.56
2022-08-26T06:00:11.900Z,75.73
2022-08-26T06:03:01.456Z,74.21
2022-08-26T06:05:48.679Z,73.52
2022-08-26T06:08:36.974Z,72.78
2022-08-26T06:11:32.331Z,71.81
2022-08-26T06:14:19.051Z,71.36
2022-08-26T06:17:11.143Z,70.76
2022-08-26T06:20:00.815Z,69.95
2022-08-26T06:23:06.837Z,69.04
2022-08-26T06:25:55.478Z,68.04
2022-08-26T06:28:45.537Z,67.12
2022-08-26T06:31:36.653Z,66.41
2022-08-26T06:34:29.684Z,65.55
2022-08-26T06:37:17.353Z,65.43
2022-08-26T06:40:06.203Z,64.96
2022-08-26T06:42:53.367Z,64.89
2022-08-26T06:45:41.347Z,64.67
2022-08-26T06:48:28.225Z,64.92
2022-08-26T06:51:22.340Z,64.97
2022-08-26T06:54:10.975Z,64.36
2022-08-26T06:56:58.292Z,64.56
2022-08-26T06:59:45.605Z,64.11
2022-08-26T07:02:32.178Z,64.17
2022-08-26T07:05:19.202Z,64.01
2022-08-26T07:08:06.345Z,64.15
2022-08-26T07:10:53.612Z,63.48
2022-08-26T07:13:43.146Z,63.24
2022-08-26T07:16:30.179Z,62.64
2022-08-26T07:19:31.129Z,62.96
2022-08-26T07:22:19.129Z,62.39
2022-08-26T07:25:08.545Z,62.13
2022-08-26T07:27:55.514Z,61.32
2022-08-26T07:30:42.749Z,61.03
2022-08-26T07:33:30.298Z,60.72
2022-08-26T07:36:18.963Z,60.42
2022-08-26T07:39:07.116Z,59.32
2022-08-26T07:41:54.381Z,60.24
2022-08-26T07:44:41.405Z,59.44
2022-08-26T07:47:27.998Z,59.50
2022-08-26T07:50:15.490Z,59.75
2022-08-26T07:53:06.869Z,58.78
2022-08-26T07:55:59.303Z,58.56
2022-08-26T07:58:50.484Z,58.68
2022-08-26T08:01:39.053Z,57.82
2022-08-26T08:04:28.562Z,56.60
2022-08-26T08:07:15.879Z,56.01
2022-08-26T08:10:05.592Z,55.44
2022-08-26T08:12:57.867Z,54.53
2022-08-26T08:15:46.143Z,53.90
2022-08-26T08:18:33.286Z,53.84
2022-08-26T08:21:23.640Z,53.10
2022-08-26T08:24:12.055Z,52.35
2022-08-26T08:27:00.965Z,50.86
2022-08-26T08:29:48.052Z,50.07
2022-08-26T08:32:38.407Z,48.86
2022-08-26T08:35:26.604Z,49.23
2022-08-26T08:38:13.739Z,49.01
2022-08-26T08:41:01.149Z,48.41
2022-08-26T08:43:53.151Z,48.08
2022-08-26T08:46:43.279Z,47.51
2022-08-26T08:49:31.968Z,47.62
2022-08-26T08:52:32.336Z,46.83
2022-08-26T08:55:19.346Z,46.14
2022-08-26T08:58:16.401Z,45.34
2022-08-26T09:01:12.301Z,44.42
2022-08-26T09:04:18.630Z,44.17
2022-08-26T09:07:10.565Z,43.51
2022-08-26T09:10:05.618Z,42.88
2022-08-26T09:12:52.572Z,43.32
2022-08-26T09:16:03.307Z,42.69
2022-08-26T09:19:18.873Z,-1.00
2022-08-26T09:22:09.302Z,32.55
2022-08-26T09:24:56.736Z,41.07
2022-08-26T09:27:50.473Z,40.27
2022-08-26T09:30:37.792Z,40.38
2022-08-26T09:33:30.249Z,39.70
2022-08-26T09:36:44.548Z,39.44
2022-08-26T09:39:37.851Z,38.46
2022-08-26T09:42:25.636Z,38.75
2022-08-26T09:45:13.302Z,38.74
2022-08-26T09:48:02.496Z,38.29
2022-08-26T09:50:55.500Z,37.31
2022-08-26T09:53:59.007Z,36.30
2022-08-26T09:56:46.659Z,35.85
2022-08-26T09:59:33.787Z,35.88
2022-08-26T10:02:34.727Z,34.54
2022-08-26T10:05:35.137Z,34.77
2022-08-26T10:08:27.666Z,34.70
2022-08-26T10:11:22.764Z,34.82
2022-08-26T10:14:25.062Z,33.64
2022-08-26T10:17:37.125Z,32.98
2022-08-26T10:20:27.547Z,32.13
2022-08-26T10:23:18.878Z,31.89
2022-08-26T10:26:39.983Z,30.41
2022-08-26T10:29:49.138Z,31.35
2022-08-26T10:32:45.930Z,31.52
2022-08-26T10:35:36.450Z,30.98
2022-08-26T10:38:35.799Z,30.29
2022-08-26T10:41:43.460Z,28.72
2022-08-26T10:44:41.055Z,30.05
2022-08-26T10:47:41.611Z,30.60
2022-08-26T10:50:36.115Z,29.05
2022-08-26T10:53:44.322Z,28.50
2022-08-26T10:56:49.280Z,29.21
2022-08-26T10:59:57.517Z,27.99
2022-08-26T11:02:50.522Z,28.39
2022-08-26T11:05:37.574Z,27.85
2022-08-26T11:08:30.018Z,27.68
2022-08-26T11:11:42.350Z,27.21
2022-08-26T11:14:53.642Z,26.83
2022-08-26T11:17:46.431Z,26.35
2022-08-26T11:20:41.775Z,26.99
2022-08-26T11:23:28.976Z,26.92
2022-08-26T11:26:35.679Z,26.88
2022-08-26T11:29:59.435Z,26.75
2022-08-26T11:32:55.648Z,-1.00
2022-08-26T11:35:42.441Z,-1.00
2022-08-26T11:38:32.620Z,-1.00
2022-08-26T11:41:23.029Z,-1.00
2022-08-26T11:44:11.344Z,-1.00
2022-08-26T11:47:11.398Z,-1.00
2022-08-26T11:50:19.826Z,-1.00
2022-08-26T11:53:07.776Z,-1.00
2022-08-26T11:55:58.302Z,-1.00
2022-08-26T11:58:48.762Z,-1.00
2022-08-26T12:01:43.574Z,-1.00
2022-08-26T12:04:33.326Z,-1.00
2022-08-26T12:07:30.187Z,-1.00
2022-08-26T12:10:33.823Z,-1.00
2022-08-26T12:13:26.644Z,-1.00
2022-08-26T12:16:13.526Z,-1.00
2022-08-26T12:19:01.534Z,-1.00
2022-08-26T12:21:49.720Z,-1.00
2022-08-26T12:24:44.376Z,-1.00
2022-08-26T12:27:39.935Z,-1.00
2022-08-26T12:30:28.882Z,-1.00
2022-08-26T12:33:23.021Z,-1.00
2022-08-26T12:36:12.485Z,-1.00
2022-08-26T12:39:11.945Z,-1.00
2022-08-26T12:42:23.353Z,-1.00
2022-08-26T12:45:10.450Z,-1.00
2022-08-26T12:48:02.097Z,-1.00
2022-08-26T12:51:06.584Z,-1.00
2022-08-26T12:54:11.760Z,-1.00
2022-08-26T12:57:09.812Z,-1.00
2022-08-26T13:00:35.641Z,-1.00
2022-08-26T13:04:00.466Z,-1.00
2022-08-26T13:07:40.499Z,-1.00
2022-08-26T13:10:40.168Z,19.58
2022-08-26T13:13:26.918Z,24.15
2022-08-26T13:16:14.388Z,24.29
2022-08-26T13:19:04.407Z,24.11
2022-08-26T13:21:54.568Z,23.79
2022-08-26T13:24:43.443Z,23.80
2022-08-26T13:27:30.670Z,23.81
2022-08-26T13:30:17.696Z,23.71
2022-08-26T13:33:04.727Z,24.14
2022-08-26T13:35:51.600Z,24.10
2022-08-26T13:38:38.326Z,24.39
2022-08-26T13:41:29.115Z,24.57
2022-08-26T13:44:17.450Z,9.16
2022-08-26T13:47:07.445Z,-1.00
2022-08-26T13:50:20.189Z,-1.00
2022-08-26T13:53:20.198Z,-1.00
2022-08-26T13:56:10.481Z,-1.00
2022-08-26T13:59:07.806Z,-1.00
2022-08-26T14:01:54.386Z,-1.00
2022-08-26T14:04:42.086Z,-1.00
2022-08-26T14:07:28.780Z,-1.00
2022-08-26T14:10:15.790Z,-1.00
2022-08-26T14:13:02.631Z,23.73
2022-08-26T14:15:53.114Z,24.07
2022-08-26T14:18:43.656Z,24.25
2022-08-26T14:21:38.838Z,24.84
2022-08-26T14:24:25.291Z,24.97
2022-08-26T14:27:18.841Z,25.24
2022-08-26T14:30:12.177Z,25.42
2022-08-26T14:33:05.883Z,25.44
2022-08-26T14:36:19.631Z,25.52
2022-08-26T14:39:14.484Z,25.42
2022-08-26T14:42:10.188Z,25.02
2022-08-26T14:45:07.420Z,25.17
2022-08-26T14:48:00.496Z,24.62
2022-08-26T14:50:54.204Z,25.03
2022-08-26T14:54:06.774Z,25.13
2022-08-26T14:57:05.716Z,25.23
2022-08-26T14:59:58.811Z,25.36
2022-08-26T15:02:52.202Z,24.97
2022-08-26T15:05:48.162Z,25.01
2022-08-26T15:08:42.045Z,24.75
2022-08-26T15:11:35.425Z,25.71
2022-08-26T15:14:32.826Z,25.54
2022-08-26T15:17:27.542Z,25.32
2022-08-26T15:20:21.078Z,25.45
2022-08-26T15:23:08.088Z,25.88
2022-08-26T15:25:55.261Z,25.93
2022-08-26T15:28:42.436Z,26.02
2022-08-26T15:31:33.900Z,26.27
2022-08-26T15:34:20.864Z,25.78
2022-08-26T15:37:09.787Z,26.42
2022-08-26T15:39:57.410Z,25.76
2022-08-26T15:42:44.576Z,26.89
2022-08-26T15:45:39.158Z,26.41
2022-08-26T15:48:26.249Z,27.03
2022-08-26T15:51:29.574Z,27.59
2022-08-26T15:54:17.333Z,27.58
2022-08-26T15:57:05.417Z,27.74
2022-08-26T15:59:55.192Z,27.67
2022-08-26T16:02:42.122Z,27.54
2022-08-26T16:05:28.723Z,27.73
2022-08-26T16:08:16.239Z,28.51
2022-08-26T16:11:04.204Z,28.43
2022-08-26T16:13:51.240Z,29.03
2022-08-26T16:16:40.473Z,29.24
2022-08-26T16:19:27.484Z,29.82
2022-08-26T16:22:14.842Z,30.51
2022-08-26T16:25:01.830Z,31.14
2022-08-26T16:27:48.262Z,31.87
2022-08-26T16:30:35.039Z,31.91
2022-08-26T16:33:29.316Z,33.04
2022-08-26T16:36:16.727Z,33.86
2022-08-26T16:39:05.901Z,34.02
2022-08-26T16:41:52.769Z,35.10
2022-08-26T16:44:45.481Z,35.76
2022-08-26T16:47:33.802Z,36.35
2022-08-26T16:50:21.619Z,37.18
2022-08-26T16:56:00.962Z,38.32
2022-08-26T16:58:48.986Z,38.65
2022-08-26T17:01:35.865Z,39.22
2022-08-26T17:04:23.179Z,39.85
2022-08-26T17:07:10.374Z,40.34
2022-08-26T17:09:57.840Z,40.57
2022-08-26T17:12:46.251Z,41.24
2022-08-26T17:15:33.317Z,41.90
2022-08-26T17:18:25.617Z,42.31
2022-08-26T17:21:14.034Z,42.64
2022-08-26T17:24:01.611Z,43.14
2022-08-26T17:26:53.528Z,43.59
2022-08-26T17:29:42.742Z,44.06
2022-08-26T17:32:30.025Z,44.38
2022-08-26T17:35:16.881Z,44.61
2022-08-26T17:38:03.928Z,44.98
2022-08-26T17:40:51.534Z,45.45
2022-08-26T17:43:40.128Z,45.41
2022-08-26T17:46:27.217Z,46.01
2022-08-26T17:49:14.701Z,46.04
2022-08-26T17:52:01.826Z,46.47
2022-08-26T17:54:52.984Z,46.65
2022-08-26T17:57:40.600Z,46.98
2022-08-26T18:00:29.514Z,47.44
2022-08-26T18:03:17.791Z,48.01
2022-08-26T18:06:10.128Z,48.30
2022-08-26T18:08:58.236Z,48.51
2022-08-26T18:11:45.243Z,49.04
2022-08-26T18:14:33.784Z,49.31
2022-08-26T18:17:20.564Z,49.45
2022-08-26T18:20:15.632Z,49.57
2022-08-26T18:23:02.841Z,49.88
2022-08-26T18:25:49.486Z,50.16
2022-08-26T18:28:36.051Z,50.36
2022-08-26T18:31:23.396Z,50.62
2022-08-26T18:34:13.141Z,50.83
2022-08-26T18:37:00.119Z,51.16
2022-08-26T18:39:47.079Z,51.38
2022-08-26T18:42:34.176Z,51.62
2022-08-26T18:45:21.023Z,51.98
2022-08-26T18:48:07.784Z,52.18
2022-08-26T18:50:55.341Z,52.40
2022-08-26T18:53:42.206Z,52.77
2022-08-26T18:56:30.170Z,52.95
2022-08-26T18:59:17.522Z,53.37
2022-08-26T19:02:04.661Z,53.44
2022-08-26T19:04:52.040Z,53.89
2022-08-26T19:07:39.714Z,53.83
2022-08-26T19:10:27.579Z,54.24
2022-08-26T19:13:14.713Z,54.50
2022-08-26T19:16:02.998Z,54.62
2022-08-26T19:18:50.841Z,54.66
2022-08-26T19:21:39.361Z,54.95
2022-08-26T19:24:28.324Z,55.18
2022-08-26T19:27:15.267Z,55.44
2022-08-26T19:30:01.981Z,55.59
2022-08-26T19:32:48.991Z,55.82
2022-08-26T19:35:36.477Z,56.04
2022-08-26T19:38:24.155Z,56.28
2022-08-26T19:41:26.567Z,56.34
2022-08-26T19:44:42.874Z,56.60
2022-08-26T19:47:30.123Z,56.75
2022-08-26T19:50:17.467Z,56.91
2022-08-26T19:53:04.931Z,57.16
2022-08-26T19:55:52.163Z,57.15
2022-08-26T19:58:39.889Z,57.21
2022-08-26T20:01:26.864Z,57.48
2022-08-26T20:04:14.300Z,57.53
2022-08-26T20:07:02.275Z,57.78
2022-08-26T20:09:50.380Z,57.97
2022-08-26T20:12:37.304Z,58.31
2022-08-26T20:15:24.543Z,58.14
2022-08-26T20:18:34.310Z,58.55
2022-08-26T20:21:27.450Z,58.78
2022-08-26T20:24:17.363Z,58.75
2022-08-26T20:27:07.711Z,58.98
2022-08-26T20:29:56.141Z,59.21
2022-08-26T20:32:43.586Z,59.40
2022-08-26T20:35:30.209Z,59.67
2022-08-26T20:38:20.975Z,59.72
2022-08-26T20:41:08.876Z,59.95
2022-08-26T20:43:56.717Z,60.13
2022-08-26T20:46:44.492Z,60.26
2022-08-26T20:49:32.360Z,60.43
2022-08-26T20:52:21.816Z,60.53
2022-08-26T20:55:10.064Z,60.75
2022-08-26T20:57:56.830Z,60.76
2022-08-26T21:00:48.276Z,60.93
2022-08-26T21:03:36.506Z,61.08
2022-08-26T21:06:24.042Z,61.19
2022-08-26T21:09:12.788Z,61.15
2022-08-26T21:12:02.126Z,61.37
2022-08-26T21:14:49.771Z,61.55
2022-08-26T21:17:39.056Z,61.54
2022-08-26T21:20:26.281Z,61.63
2022-08-26T21:23:15.212Z,61.62
2022-08-26T21:26:04.120Z,61.71
2022-08-26T21:28:51.821Z,61.58
2022-08-26T21:31:44.889Z,61.64
2022-08-26T21:34:32.794Z,61.97
2022-08-26T21:37:19.754Z,61.82
2022-08-26T21:40:12.755Z,62.04
2022-08-26T21:42:59.983Z,62.12
2022-08-26T21:45:47.231Z,62.32
2022-08-26T21:48:35.222Z,62.37
2022-08-26T21:51:24.518Z,62.34
2022-08-26T21:54:12.802Z,62.42
2022-08-26T21:57:00.235Z,62.68
2022-08-26T21:59:47.226Z,62.62
2022-08-26T22:02:34.943Z,62.65
2022-08-26T22:05:21.886Z,62.65
2022-08-26T22:08:09.169Z,62.78
2022-08-26T22:10:57.306Z,63.03
2022-08-26T22:13:44.473Z,62.97
2022-08-26T22:16:31.208Z,62.93
2022-08-26T22:19:23.452Z,63.08
2022-08-26T22:22:10.939Z,63.30
2022-08-26T22:24:58.065Z,63.54
2022-08-26T22:27:45.114Z,63.60
2022-08-26T22:30:32.302Z,63.83
2022-08-26T22:33:19.318Z,63.76
2022-08-26T22:36:06.516Z,63.79
2022-08-26T22:38:54.854Z,63.97
2022-08-26T22:41:44.492Z,64.03
2022-08-26T22:44:31.975Z,64.11
2022-08-26T22:47:19.363Z,64.33
2022-08-26T22:50:07.288Z,64.42
2022-08-26T22:52:54.178Z,64.37
2022-08-26T22:55:41.259Z,64.54
2022-08-26T23:03:36.003Z,64.67
2022-08-26T23:06:23.358Z,64.72
2022-08-26T23:09:14.895Z,64.88
2022-08-26T23:12:01.933Z,65.12
2022-08-26T23:14:49.169Z,65.14
2022-08-26T23:17:41.353Z,65.42
2022-08-26T23:20:34.171Z,65.51
2022-08-26T23:23:21.093Z,65.55
2022-08-26T23:26:08.782Z,65.63
2022-08-26T23:28:56.201Z,65.60
2022-08-26T23:31:43.192Z,65.83
2022-08-26T23:34:48.785Z,65.96
2022-08-26T23:37:39.432Z,65.87
2022-08-26T23:40:32.442Z,66.06
2022-08-26T23:43:20.019Z,66.17
2022-08-26T23:46:07.162Z,66.34
2022-08-26T23:48:54.276Z,66.55
2022-08-26T23:51:59.920Z,66.46
2022-08-26T23:54:48.972Z,66.67
2022-08-26T23:57:35.805Z,66.65
